Time;durP1;ratioP1;P1;durP2;ratioP2;P2;SDS_P1;SDS_P2;PMS_P1;PMS_P2;Temp;Humidity;BMP_temperature;BMP_pressure;BME280_temperature;BME280_humidity;BME280_pressure;Samples;Min_cycle;Max_cycle;Signal;HPM_P1;HPM_P2
2023/02/25 00:01:17;;;;;;;6.80;2.67;;;7.80;99.90;;;;;;5014000;28;20446;-73
2023/02/25 00:03:43;;;;;;;10.63;2.50;;;7.80;99.90;;;;;;5017301;28;20858;-73
2023/02/25 00:06:13;;;;;;;7.20;2.10;;;7.80;99.90;;;;;;5014972;28;20424;-73
2023/02/25 00:08:44;;;;;;;10.63;2.90;;;7.80;99.90;;;;;;5027043;28;20510;-73
2023/02/25 00:11:16;;;;;;;7.93;2.40;;;7.80;99.90;;;;;;4998766;28;20443;-73
2023/02/25 00:13:42;;;;;;;9.80;2.70;;;7.80;99.90;;;;;;5015585;28;20399;-73
2023/02/25 00:16:11;;;;;;;10.10;2.60;;;7.80;99.90;;;;;;5012597;28;20481;-73
2023/02/25 00:18:39;;;;;;;6.93;2.57;;;7.80;99.90;;;;;;5035258;28;20453;-73
2023/02/25 00:21:08;;;;;;;12.20;3.27;;;7.80;99.90;;;;;;5035136;28;20413;-73
2023/02/25 00:23:35;;;;;;;12.00;2.53;;;7.80;99.90;;;;;;5010713;28;20499;-73
2023/02/25 00:26:07;;;;;;;14.57;3.33;;;7.80;99.90;;;;;;5006427;28;20817;-73
2023/02/25 00:28:34;;;;;;;9.07;2.33;;;7.80;99.90;;;;;;4998073;28;21009;-73
2023/02/25 00:31:24;;;;;;;8.33;2.30;;;7.80;99.90;;;;;;5022575;28;20414;-73
2023/02/25 00:33:51;;;;;;;8.67;2.67;;;7.80;99.90;;;;;;5033377;28;20432;-73
2023/02/25 00:36:23;;;;;;;11.77;3.30;;;7.80;99.90;;;;;;5034011;28;20790;-73
2023/02/25 00:38:51;;;;;;;8.93;2.10;;;7.80;99.90;;;;;;5019913;28;20463;-73
2023/02/25 00:41:22;;;;;;;7.63;3.03;;;7.80;99.90;;;;;;5027595;28;20441;-73
2023/02/25 00:43:51;;;;;;;10.50;2.80;;;7.80;99.90;;;;;;5020689;28;20464;-73
2023/02/25 00:46:23;;;;;;;8.87;2.03;;;7.80;99.90;;;;;;5009274;28;20426;-73
2023/02/25 00:48:51;;;;;;;6.40;2.33;;;7.70;99.90;;;;;;5001491;28;20443;-73
2023/02/25 00:51:24;;;;;;;13.00;3.30;;;7.70;99.90;;;;;;5000080;28;20450;-73
2023/02/25 00:53:55;;;;;;;10.37;2.77;;;7.70;99.90;;;;;;5013937;28;20451;-73
2023/02/25 00:56:29;;;;;;;7.53;2.20;;;7.70;99.90;;;;;;5067007;22;20491;-76
2023/02/25 00:58:59;;;;;;;7.80;2.40;;;7.70;99.90;;;;;;5040792;28;20533;-76
2023/02/25 01:01:32;;;;;;;8.80;2.43;;;7.70;99.90;;;;;;5040974;28;20455;-76
2023/02/25 01:03:58;;;;;;;5.43;1.87;;;7.70;99.90;;;;;;5040862;28;20474;-76
2023/02/25 01:06:29;;;;;;;6.27;3.33;;;7.70;99.90;;;;;;5040902;28;20407;-76
2023/02/25 01:08:57;;;;;;;10.97;2.73;;;7.70;99.90;;;;;;5041152;28;20404;-76
2023/02/25 01:11:28;;;;;;;7.20;2.50;;;7.70;99.90;;;;;;5041241;28;20817;-76
2023/02/25 01:13:57;;;;;;;7.87;2.33;;;7.70;99.90;;;;;;5057459;28;20984;-77
2023/02/25 01:16:28;;;;;;;10.47;2.40;;;7.70;99.90;;;;;;5041149;28;20428;-76
2023/02/25 01:18:56;;;;;;;6.20;2.63;;;7.70;99.90;;;;;;5053472;28;20506;-76
2023/02/25 01:21:29;;;;;;;5.93;2.33;;;7.70;99.90;;;;;;5077123;28;20485;-76
2023/02/25 01:23:59;;;;;;;4.77;2.17;;;7.70;99.90;;;;;;5094916;28;20459;-76
2023/02/25 01:26:32;;;;;;;13.27;2.63;;;7.70;99.90;;;;;;5057183;28;20967;-76
2023/02/25 01:28:58;;;;;;;3.67;2.07;;;7.70;99.90;;;;;;5056949;28;20495;-76
2023/02/25 01:31:30;;;;;;;7.13;2.10;;;7.60;99.90;;;;;;5040556;28;20444;-76
2023/02/25 01:34:01;;;;;;;7.30;2.17;;;7.70;99.90;;;;;;5056933;28;20769;-76
2023/02/25 01:36:29;;;;;;;6.90;1.97;;;7.70;99.90;;;;;;5054681;28;20929;-76
2023/02/25 01:38:56;;;;;;;3.90;1.90;;;7.60;99.90;;;;;;5062376;28;20416;-76
2023/02/25 01:41:26;;;;;;;9.57;2.20;;;7.60;99.90;;;;;;5057165;28;20249;-75
2023/02/25 01:44:05;;;;;;;9.87;2.33;;;7.60;99.90;;;;;;5040096;28;20487;-76
2023/02/25 01:46:31;;;;;;;6.70;2.20;;;7.60;99.90;;;;;;5023802;28;20911;-75
2023/02/25 01:49:04;;;;;;;5.33;2.30;;;7.60;99.90;;;;;;5040102;28;20762;-76
2023/02/25 01:51:34;;;;;;;5.20;1.80;;;7.60;99.90;;;;;;5040165;28;20453;-76
2023/02/25 01:54:01;;;;;;;6.57;2.53;;;7.60;99.90;;;;;;5056597;28;20400;-76
2023/02/25 01:56:29;;;;;;;6.50;2.27;;;7.60;99.90;;;;;;5056314;28;20856;-76
2023/02/25 01:58:57;;;;;;;8.60;2.00;;;7.60;99.90;;;;;;5056249;28;20949;-76
2023/02/25 02:01:27;;;;;;;9.03;2.07;;;7.60;99.90;;;;;;5023619;28;20455;-76
2023/02/25 02:03:55;;;;;;;8.57;2.10;;;7.60;99.90;;;;;;5023518;28;20851;-76
2023/02/25 02:06:29;;;;;;;5.20;2.10;;;7.60;99.90;;;;;;5057016;28;20503;-76
2023/02/25 02:08:57;;;;;;;11.20;2.30;;;7.60;99.90;;;;;;5038993;28;20519;-76
2023/02/25 02:11:24;;;;;;;6.80;2.07;;;7.60;99.90;;;;;;5023458;28;20485;-76
2023/02/25 02:13:55;;;;;;;6.70;1.97;;;7.60;99.90;;;;;;5068488;28;20424;-76
2023/02/25 02:16:40;;;;;;;9.20;2.30;;;7.60;99.90;;;;;;5076488;28;20392;-76
2023/02/25 02:19:32;;;;;;;6.83;2.00;;;7.60;99.90;;;;;;5042546;28;20492;-76
2023/02/25 02:22:15;;;;;;;8.00;2.40;;;7.60;99.90;;;;;;5076125;28;20400;-76
2023/02/25 02:25:02;;;;;;;9.33;2.50;;;7.60;99.90;;;;;;5042655;28;20524;-76
2023/02/25 02:27:42;;;;;;;6.00;2.33;;;7.60;99.90;;;;;;5076483;28;20448;-76
2023/02/25 02:30:31;;;;;;;7.40;2.30;;;7.60;99.90;;;;;;5094029;28;20783;-76
2023/02/25 02:33:08;;;;;;;7.00;2.53;;;7.60;99.90;;;;;;5059252;28;20442;-76
2023/02/25 02:35:55;;;;;;;8.67;2.00;;;7.60;99.90;;;;;;5059098;28;20427;-76
2023/02/25 02:38:30;;;;;;;7.03;1.73;;;7.50;99.90;;;;;;5075841;28;20440;-76
2023/02/25 02:41:16;;;;;;;6.20;2.47;;;7.50;99.90;;;;;;5060055;28;20411;-76
2023/02/25 02:43:55;;;;;;;6.03;1.50;;;7.50;99.90;;;;;;5058991;28;20818;-76
2023/02/25 02:46:32;;;;;;;7.97;2.50;;;7.50;99.90;;;;;;5055659;28;20836;-76
2023/02/25 02:49:21;;;;;;;6.77;1.87;;;7.50;99.90;;;;;;5055856;28;20417;-76
2023/02/25 02:51:55;;;;;;;5.43;2.27;;;7.50;99.90;;;;;;5051610;28;20455;-76
2023/02/25 02:54:33;;;;;;;3.77;1.97;;;7.50;99.90;;;;;;5022816;28;20932;-76
2023/02/25 02:57:01;;;;;;;7.83;2.53;;;7.50;99.90;;;;;;5055323;28;20450;-76
2023/02/25 02:59:41;;;;;;;8.57;2.50;;;7.50;99.90;;;;;;5056964;28;20450;-76
2023/02/25 03:02:19;;;;;;;7.57;2.00;;;7.50;99.90;;;;;;5039313;28;20419;-76
2023/02/25 03:04:51;;;;;;;4.93;1.93;;;7.50;99.90;;;;;;5055212;28;20447;-75
2023/02/25 03:07:20;;;;;;;6.50;1.77;;;7.50;99.90;;;;;;5038753;28;20433;-76
2023/02/25 03:09:53;;;;;;;8.60;1.90;;;7.50;99.90;;;;;;5022422;28;20431;-75
2023/02/25 03:12:23;;;;;;;8.90;1.80;;;7.50;99.90;;;;;;5055330;28;20528;-76
2023/02/25 03:14:49;;;;;;;9.50;2.70;;;7.50;99.90;;;;;;5074522;28;20408;-76
2023/02/25 03:17:19;;;;;;;7.87;2.17;;;7.50;99.90;;;;;;5055392;28;20526;-76
2023/02/25 03:20:15;;;;;;;8.63;2.23;;;7.50;99.90;;;;;;5038498;28;20448;-76
2023/02/25 03:22:47;;;;;;;8.77;3.07;;;7.50;99.90;;;;;;5038678;28;20764;-76
2023/02/25 03:25:32;;;;;;;5.13;2.10;;;7.50;99.90;;;;;;5055120;28;20429;-76
2023/02/25 03:28:05;;;;;;;7.50;2.07;;;7.50;99.90;;;;;;5063208;28;21040;-76
2023/02/25 03:30:39;;;;;;;9.13;2.63;;;7.50;99.90;;;;;;5042032;28;20868;-75
2023/02/25 03:33:17;;;;;;;9.23;2.23;;;7.40;99.90;;;;;;5042659;28;20446;-76
2023/02/25 03:35:47;;;;;;;9.43;2.27;;;7.40;99.90;;;;;;5058376;28;20431;-76
2023/02/25 03:38:19;;;;;;;5.63;2.63;;;7.40;99.90;;;;;;5058388;28;20539;-76
2023/02/25 03:40:48;;;;;;;10.50;2.30;;;7.40;99.90;;;;;;5082737;28;20538;-76
2023/02/25 03:43:24;;;;;;;9.23;1.90;;;7.40;99.90;;;;;;5058309;28;20453;-76
2023/02/25 03:45:51;;;;;;;5.63;2.07;;;7.40;99.90;;;;;;5041875;28;20946;-76
2023/02/25 03:48:18;;;;;;;11.93;2.10;;;7.50;99.90;;;;;;5072294;28;20466;-76
2023/02/25 03:50:51;;;;;;;2.30;1.50;;;7.40;99.90;;;;;;5038115;28;20915;-76
2023/02/25 03:53:20;;;;;;;10.23;2.57;;;7.40;99.90;;;;;;5022322;28;20473;-76
2023/02/25 03:55:50;;;;;;;8.05;1.90;;;7.40;99.90;;;;;;5073626;28;20407;-76
2023/02/25 03:58:16;;;;;;;5.63;2.23;;;7.40;99.90;;;;;;5074902;28;20204;-76
2023/02/25 04:00:47;;;;;;;6.47;1.70;;;7.40;99.90;;;;;;5091879;28;20459;-75
2023/02/25 04:03:15;;;;;;;6.93;2.13;;;7.40;99.90;;;;;;5092787;28;20800;-75
2023/02/25 04:05:41;;;;;;;5.67;2.00;;;7.40;99.90;;;;;;5074879;28;20465;-76
2023/02/25 04:08:14;;;;;;;7.73;2.33;;;7.40;99.90;;;;;;5068976;28;20436;-77
2023/02/25 04:10:46;;;;;;;6.87;2.27;;;7.40;99.90;;;;;;5054697;28;20792;-76
2023/02/25 04:13:14;;;;;;;5.07;1.73;;;7.40;99.90;;;;;;5038180;28;20412;-76
2023/02/25 04:15:43;;;;;;;7.03;2.03;;;7.40;99.90;;;;;;5054546;28;20895;-75
2023/02/25 04:18:09;;;;;;;5.57;2.07;;;7.40;99.90;;;;;;5077263;28;20545;-76
2023/02/25 04:20:38;;;;;;;6.27;2.00;;;7.40;99.90;;;;;;5075004;28;20441;-76
2023/02/25 04:23:04;;;;;;;5.97;2.10;;;7.40;99.90;;;;;;5112958;28;20438;-76
2023/02/25 04:25:32;;;;;;;11.87;2.73;;;7.40;99.90;;;;;;5094882;28;20438;-76
2023/02/25 04:27:58;;;;;;;5.70;2.23;;;7.40;99.90;;;;;;5089993;28;20905;-76
2023/02/25 04:30:26;;;;;;;8.40;2.50;;;7.40;99.90;;;;;;5074811;28;20546;-76
2023/02/25 04:32:53;;;;;;;9.37;2.90;;;7.40;99.90;;;;;;5061573;28;21000;-75
2023/02/25 04:35:18;;;;;;;5.70;2.40;;;7.40;99.90;;;;;;5044996;28;20498;-76
2023/02/25 04:37:47;;;;;;;5.57;1.70;;;7.40;99.90;;;;;;5077983;28;20935;-75
2023/02/25 04:40:18;;;;;;;9.27;2.67;;;7.40;99.90;;;;;;5044716;28;20430;-76
2023/02/25 04:42:46;;;;;;;6.40;2.05;;;7.40;99.90;;;;;;5078530;28;20501;-76
2023/02/25 04:45:19;;;;;;;5.90;1.97;;;7.40;99.90;;;;;;5098759;28;20204;-76
2023/02/25 04:47:45;;;;;;;4.03;1.80;;;7.40;99.90;;;;;;5101785;28;20449;-76
2023/02/25 04:50:12;;;;;;;6.57;2.10;;;7.40;99.90;;;;;;5061295;28;20756;-75
2023/02/25 04:52:38;;;;;;;8.85;2.20;;;7.40;99.90;;;;;;5077724;28;20439;-76
2023/02/25 04:55:08;;;;;;;9.97;2.17;;;7.40;99.90;;;;;;5061250;28;20641;-76
2023/02/25 04:57:41;;;;;;;10.43;2.17;;;7.40;99.90;;;;;;5095804;28;20450;-76
2023/02/25 05:00:22;;;;;;;6.13;1.80;;;7.40;99.90;;;;;;5094626;28;20801;-76
2023/02/25 05:02:51;;;;;;;8.93;2.77;;;7.40;99.90;;;;;;5095491;28;20424;-75
2023/02/25 05:05:20;;;;;;;6.27;1.93;;;7.40;99.90;;;;;;5095599;28;20781;-76
2023/02/25 05:07:46;;;;;;;8.73;2.23;;;7.40;99.90;;;;;;5041729;28;20782;-76
2023/02/25 05:10:18;;;;;;;4.30;1.93;;;7.40;99.90;;;;;;5041020;28;20419;-76
2023/02/25 05:12:46;;;;;;;4.47;2.03;;;7.40;99.90;;;;;;5057519;28;20419;-76
2023/02/25 05:15:15;;;;;;;7.60;2.00;;;7.30;99.90;;;;;;5041092;28;20434;-76
2023/02/25 05:17:40;;;;;;;5.70;1.80;;;7.30;99.90;;;;;;5050919;22;20494;-75
2023/02/25 05:20:11;;;;;;;4.70;1.93;;;7.30;99.90;;;;;;5017107;28;20477;-75
2023/02/25 05:22:40;;;;;;;10.87;2.00;;;7.40;99.90;;;;;;4998382;28;20896;-75
2023/02/25 05:25:10;;;;;;;6.20;1.53;;;7.40;99.90;;;;;;4997887;28;20475;-75
2023/02/25 05:27:41;;;;;;;6.50;1.90;;;7.30;99.90;;;;;;4997955;28;20454;-75
2023/02/25 05:30:08;;;;;;;4.15;1.75;;;7.30;99.90;;;;;;4997977;28;20414;-75
2023/02/25 05:32:34;;;;;;;6.87;1.83;;;7.30;99.90;;;;;;5015257;28;20633;-75
2023/02/25 05:35:03;;;;;;;12.40;1.80;;;7.30;99.90;;;;;;4984574;28;20422;-76
2023/02/25 05:37:30;;;;;;;9.00;1.97;;;7.30;99.90;;;;;;5033548;28;20707;-75
2023/02/25 05:39:57;;;;;;;7.33;2.40;;;7.30;99.90;;;;;;5034897;28;20413;-75
2023/02/25 05:42:23;;;;;;;8.07;1.90;;;7.30;99.90;;;;;;5017331;28;20500;-75
2023/02/25 05:44:49;;;;;;;4.80;2.23;;;7.30;99.90;;;;;;5034652;28;20461;-75
2023/02/25 05:47:17;;;;;;;5.87;1.80;;;7.30;99.90;;;;;;5033442;28;20549;-75
2023/02/25 05:49:45;;;;;;;13.47;2.27;;;7.30;99.90;;;;;;5033745;28;20516;-75
2023/02/25 05:52:13;;;;;;;5.93;2.53;;;7.30;99.90;;;;;;5033621;28;20823;-75
2023/02/25 05:54:39;;;;;;;4.83;1.90;;;7.30;99.90;;;;;;5034717;28;20213;-75
2023/02/25 05:57:05;;;;;;;6.83;1.93;;;7.30;99.90;;;;;;5033422;28;20516;-75
2023/02/25 05:59:35;;;;;;;6.57;2.00;;;7.30;99.90;;;;;;5033507;28;20404;-75
2023/02/25 06:02:02;;;;;;;7.03;2.37;;;7.30;99.90;;;;;;5033305;28;20509;-75
2023/02/25 06:04:31;;;;;;;9.20;2.60;;;7.30;99.90;;;;;;5001069;28;20563;-75
2023/02/25 06:07:02;;;;;;;5.30;2.10;;;7.30;99.90;;;;;;5016749;28;20852;-75
2023/02/25 06:09:28;;;;;;;7.63;2.13;;;7.30;99.90;;;;;;5048591;28;20423;-75
2023/02/25 06:11:54;;;;;;;10.20;2.30;;;7.30;99.90;;;;;;5053095;28;20456;-75
2023/02/25 06:14:20;;;;;;;6.33;2.03;;;7.30;99.90;;;;;;5036474;28;20434;-75
2023/02/25 06:16:50;;;;;;;5.27;2.00;;;7.30;99.90;;;;;;5052850;28;20420;-75
2023/02/25 06:19:16;;;;;;;4.87;2.50;;;7.30;99.90;;;;;;5036431;28;20852;-76
2023/02/25 06:21:42;;;;;;;6.67;1.97;;;7.30;99.90;;;;;;5052995;28;20421;-75
2023/02/25 06:24:09;;;;;;;8.23;2.17;;;7.30;99.90;;;;;;5052643;28;20495;-75
2023/02/25 06:26:44;;;;;;;9.40;2.83;;;7.30;99.90;;;;;;5052745;28;20411;-75
2023/02/25 06:29:10;;;;;;;8.33;2.40;;;7.30;99.90;;;;;;5052672;28;20519;-75
2023/02/25 06:31:39;;;;;;;5.83;2.00;;;7.30;99.90;;;;;;5052817;28;20496;-75
2023/02/25 06:34:07;;;;;;;13.63;2.63;;;7.30;99.90;;;;;;5036583;28;20874;-75
2023/02/25 06:36:33;;;;;;;11.60;2.50;;;7.30;99.90;;;;;;5052568;28;20453;-75
2023/02/25 06:38:59;;;;;;;7.53;2.57;;;7.30;99.90;;;;;;5019678;28;20468;-75
2023/02/25 06:41:26;;;;;;;7.53;2.40;;;7.30;99.90;;;;;;5036064;28;20434;-75
2023/02/25 06:43:56;;;;;;;6.60;2.60;;;7.30;99.90;;;;;;5052373;28;20464;-75
2023/02/25 06:46:25;;;;;;;16.17;2.10;;;7.30;99.90;;;;;;5036018;28;20418;-75
2023/02/25 06:48:52;;;;;;;8.50;2.63;;;7.30;99.90;;;;;;5052415;28;20443;-75
2023/02/25 06:51:18;;;;;;;10.00;2.27;;;7.30;99.90;;;;;;5053525;28;20412;-75
2023/02/25 06:53:46;;;;;;;9.33;2.23;;;7.20;99.90;;;;;;5053298;28;20415;-75
2023/02/25 06:56:15;;;;;;;7.03;2.27;;;7.30;99.90;;;;;;5038751;28;20429;-75
2023/02/25 06:58:41;;;;;;;4.97;1.63;;;7.20;99.90;;;;;;5015848;28;20449;-75
2023/02/25 07:01:10;;;;;;;12.33;2.20;;;7.30;99.90;;;;;;5015782;28;20417;-75
2023/02/25 07:03:37;;;;;;;7.63;2.07;;;7.20;99.90;;;;;;5015789;28;20469;-75
2023/02/25 07:06:06;;;;;;;9.83;2.80;;;7.20;99.90;;;;;;5015962;28;20425;-75
2023/02/25 07:08:34;;;;;;;4.40;2.10;;;7.20;99.90;;;;;;5015649;28;20536;-75
2023/02/25 07:11:24;;;;;;;7.80;1.97;;;7.20;99.90;;;;;;5015587;28;20491;-75
2023/02/25 07:13:50;;;;;;;4.90;1.90;;;7.20;99.90;;;;;;5033283;28;20498;-75
2023/02/25 07:16:16;;;;;;;3.50;1.60;;;7.20;99.90;;;;;;5015778;28;20974;-73
2023/02/25 07:18:43;;;;;;;7.10;1.57;;;7.20;99.90;;;;;;5015713;28;20467;-73
2023/02/25 07:21:12;;;;;;;6.20;2.57;;;7.20;99.90;;;;;;5015669;28;20425;-73
2023/02/25 07:23:38;;;;;;;7.33;2.57;;;7.20;99.90;;;;;;5033233;28;20452;-73
2023/02/25 07:26:09;;;;;;;13.93;3.00;;;7.20;99.90;;;;;;5033418;28;20436;-77
2023/02/25 07:28:36;;;;;;;7.77;2.20;;;7.20;99.90;;;;;;5032431;28;20437;-73
2023/02/25 07:31:09;;;;;;;6.57;2.73;;;7.20;99.90;;;;;;5032935;28;20425;-78
2023/02/25 07:33:37;;;;;;;9.87;2.70;;;7.20;99.90;;;;;;5016436;28;20458;-74
2023/02/25 07:36:05;;;;;;;8.73;2.50;;;7.20;99.90;;;;;;4979743;28;20510;-75
2023/02/25 07:38:31;;;;;;;6.93;2.30;;;7.20;99.90;;;;;;4995707;28;20511;-76
2023/02/25 07:41:06;;;;;;;8.37;2.13;;;7.20;99.90;;;;;;5012533;28;20737;-76
2023/02/25 07:43:35;;;;;;;6.17;2.40;;;7.20;99.90;;;;;;4979376;28;20466;-76
2023/02/25 07:46:01;;;;;;;5.80;2.33;;;7.20;99.90;;;;;;5012653;28;20447;-75
2023/02/25 07:48:27;;;;;;;7.07;2.73;;;7.20;99.90;;;;;;4995026;28;20460;-76
2023/02/25 07:51:02;;;;;;;5.30;2.77;;;7.20;99.90;;;;;;5011606;28;20498;-76
2023/02/25 07:53:33;;;;;;;9.87;2.10;;;7.20;99.90;;;;;;5012761;28;20853;-76
2023/02/25 07:56:00;;;;;;;8.43;2.77;;;7.20;99.90;;;;;;5010474;28;20430;-76
2023/02/25 07:58:27;;;;;;;7.40;2.90;;;7.20;99.90;;;;;;4994833;28;20997;-76
2023/02/25 08:00:56;;;;;;;10.10;3.60;;;7.20;99.90;;;;;;5011207;28;20418;-76
2023/02/25 08:03:22;;;;;;;11.17;3.70;;;7.20;99.90;;;;;;5011296;28;20454;-76
2023/02/25 08:05:53;;;;;;;12.83;3.20;;;7.20;99.90;;;;;;4995996;28;20822;-76
2023/02/25 08:08:20;;;;;;;9.48;2.97;;;7.20;99.90;;;;;;5016155;28;20481;-76
2023/02/25 08:10:46;;;;;;;13.47;3.00;;;7.20;99.90;;;;;;4998804;28;20183;-76
2023/02/25 08:13:13;;;;;;;9.37;3.60;;;7.20;99.90;;;;;;5015042;28;21096;-76
2023/02/25 08:15:43;;;;;;;9.30;3.00;;;7.20;99.90;;;;;;4982564;28;20423;-76
2023/02/25 08:18:11;;;;;;;8.13;2.93;;;7.20;99.90;;;;;;5014888;28;20295;-76
2023/02/25 08:20:37;;;;;;;9.73;3.40;;;7.20;99.90;;;;;;5014995;28;20419;-76
2023/02/25 08:23:05;;;;;;;12.80;4.20;;;7.20;99.90;;;;;;5013519;28;20757;-76
2023/02/25 08:25:34;;;;;;;16.30;3.67;;;7.20;99.90;;;;;;5013998;28;20405;-76
2023/02/25 08:28:00;;;;;;;12.47;5.73;;;7.20;99.90;;;;;;5014183;28;20472;-76
2023/02/25 08:30:26;;;;;;;13.40;2.80;;;7.20;99.90;;;;;;4996450;28;20402;-76
2023/02/25 08:32:56;;;;;;;8.50;3.57;;;7.20;99.90;;;;;;5013351;28;20400;-76
2023/02/25 08:35:24;;;;;;;11.90;3.10;;;7.20;99.90;;;;;;5013367;28;20409;-77
2023/02/25 08:37:51;;;;;;;8.70;2.80;;;7.20;99.90;;;;;;5012917;28;20454;-76
2023/02/25 08:40:18;;;;;;;9.67;2.83;;;7.20;99.90;;;;;;4998224;28;20415;-76
2023/02/25 08:42:44;;;;;;;6.82;3.13;;;7.20;99.90;;;;;;5015193;28;20434;-76
2023/02/25 08:45:10;;;;;;;9.07;3.00;;;7.20;99.90;;;;;;4997968;28;20632;-76
2023/02/25 08:47:38;;;;;;;9.93;3.10;;;7.20;99.90;;;;;;5015450;28;20442;-76
2023/02/25 08:50:10;;;;;;;9.57;2.80;;;7.20;99.90;;;;;;4998423;28;20497;-76
2023/02/25 08:52:36;;;;;;;11.97;3.33;;;7.20;99.90;;;;;;4981973;28;20420;-76
2023/02/25 08:55:06;;;;;;;7.20;2.77;;;7.20;99.90;;;;;;5014127;28;20422;-76
2023/02/25 08:57:32;;;;;;;4.97;2.40;;;7.20;99.90;;;;;;4995529;28;20509;-76
2023/02/25 08:59:58;;;;;;;6.80;2.70;;;7.20;99.90;;;;;;5015977;23;21191;-72
2023/02/25 09:02:24;;;;;;;6.43;2.60;;;7.20;99.90;;;;;;5064475;28;20470;-72
2023/02/25 09:04:50;;;;;;;9.43;2.63;;;7.20;99.90;;;;;;5051432;28;20433;-72
2023/02/25 09:07:16;;;;;;;8.33;2.87;;;7.20;99.90;;;;;;5048692;28;20446;-72
2023/02/25 09:09:43;;;;;;;6.07;3.20;;;7.20;99.90;;;;;;5050576;28;20975;-72
2023/02/25 09:12:09;;;;;;;10.77;3.10;;;7.20;99.90;;;;;;5050093;28;20949;-72
2023/02/25 09:14:36;;;;;;;9.23;2.50;;;7.30;99.90;;;;;;5049665;28;20507;-72
2023/02/25 09:17:03;;;;;;;8.23;2.63;;;7.30;99.90;;;;;;5022558;28;20478;-72
2023/02/25 09:19:33;;;;;;;6.70;2.20;;;7.30;99.90;;;;;;5044983;28;20433;-72
2023/02/25 09:22:02;;;;;;;8.40;3.10;;;7.30;99.90;;;;;;5049802;28;20435;-72
2023/02/25 09:24:28;;;;;;;6.50;2.20;;;7.30;99.90;;;;;;5049612;28;20527;-70
2023/02/25 09:26:57;;;;;;;11.17;3.33;;;7.30;99.90;;;;;;5047975;28;20449;-69
2023/02/25 09:29:23;;;;;;;6.80;2.40;;;7.30;99.90;;;;;;5049606;28;20771;-70
2023/02/25 09:31:54;;;;;;;7.87;2.60;;;7.30;99.90;;;;;;5033733;28;20423;-70
2023/02/25 09:34:20;;;;;;;6.60;2.33;;;7.30;99.90;;;;;;5050841;28;20456;-71
2023/02/25 09:36:48;;;;;;;8.20;2.70;;;7.30;99.90;;;;;;5040562;28;20483;-70
2023/02/25 09:39:17;;;;;;;6.83;2.90;;;7.30;99.90;;;;;;5030986;28;20439;-69
2023/02/25 09:41:52;;;;;;;5.97;2.10;;;7.30;99.90;;;;;;5059498;28;20480;-69
2023/02/25 09:44:49;;;;;;;7.83;2.23;;;7.30;99.90;;;;;;5057289;28;20491;-70
2023/02/25 09:47:36;;;;;;;10.33;2.70;;;7.30;99.90;;;;;;5044674;28;20557;-69
2023/02/25 09:50:10;;;;;;;9.87;2.70;;;7.30;99.90;;;;;;5001978;28;20432;-75
2023/02/25 09:52:43;;;;;;;5.90;2.47;;;7.30;99.90;;;;;;5052427;28;20429;-70
2023/02/25 09:55:27;;;;;;;6.00;2.60;;;7.30;99.90;;;;;;5035505;28;20473;-70
2023/02/25 09:58:10;;;;;;;7.37;2.90;;;7.30;99.90;;;;;;5050486;28;20449;-69
2023/02/25 10:00:49;;;;;;;6.00;2.47;;;7.30;99.90;;;;;;5052213;28;20453;-72
2023/02/25 10:03:38;;;;;;;11.33;2.50;;;7.30;99.90;;;;;;5035508;28;20438;-69
2023/02/25 10:06:07;;;;;;;5.10;2.80;;;7.30;99.90;;;;;;5045745;28;20443;-70
2023/02/25 10:08:43;;;;;;;7.53;2.83;;;7.30;99.90;;;;;;5020118;28;20495;-68
2023/02/25 10:11:15;;;;;;;4.00;2.17;;;7.30;99.90;;;;;;5018534;28;20484;-69
2023/02/25 10:14:05;;;;;;;10.00;2.53;;;7.30;99.90;;;;;;5050879;28;20894;-71
2023/02/25 10:16:40;;;;;;;9.80;2.73;;;7.30;99.90;;;;;;5062557;28;20465;-76
2023/02/25 10:19:27;;;;;;;6.47;3.07;;;7.30;99.90;;;;;;5051227;28;20843;-77
2023/02/25 10:22:28;;;;;;;7.60;2.67;;;7.40;99.90;;;;;;5050047;28;20459;-76
2023/02/25 10:25:13;;;;;;;8.30;2.40;;;7.30;99.90;;;;;;5034242;28;20499;-75
2023/02/25 10:28:12;;;;;;;4.80;2.30;;;7.30;99.90;;;;;;5050798;28;20455;-76
2023/02/25 10:31:08;;;;;;;8.63;3.30;;;7.30;99.90;;;;;;5048035;28;20484;-76
2023/02/25 10:33:41;;;;;;;4.87;2.60;;;7.30;99.90;;;;;;5056727;28;20491;-75
2023/02/25 10:36:09;;;;;;;4.70;1.80;;;7.30;99.90;;;;;;5051504;28;20444;-76
2023/02/25 10:38:41;;;;;;;5.90;2.40;;;7.30;99.90;;;;;;5034912;28;20446;-76
2023/02/25 10:41:07;;;;;;;6.80;2.13;;;7.30;99.90;;;;;;5033317;28;20461;-75
2023/02/25 10:43:38;;;;;;;6.93;2.20;;;7.30;99.90;;;;;;5021996;28;20460;-75
2023/02/25 10:46:16;;;;;;;3.50;2.13;;;7.30;99.90;;;;;;5027072;28;20767;-70
2023/02/25 10:48:52;;;;;;;5.93;2.00;;;7.30;99.90;;;;;;5038251;28;20486;-76
2023/02/25 10:51:18;;;;;;;5.03;2.20;;;7.30;99.90;;;;;;5050291;28;20462;-76
2023/02/25 10:53:57;;;;;;;6.43;2.30;;;7.30;99.90;;;;;;5051630;28;20187;-74
2023/02/25 10:56:43;;;;;;;3.05;1.85;;;7.30;99.90;;;;;;5050236;28;20495;-76
2023/02/25 10:59:28;;;;;;;4.10;1.97;;;7.30;99.90;;;;;;5043870;28;20198;-72
2023/02/25 11:01:58;;;;;;;2.60;2.00;;;7.30;99.90;;;;;;5034548;28;21052;-76
2023/02/25 11:04:36;;;;;;;5.13;2.20;;;7.30;99.90;;;;;;5034916;28;20457;-76
2023/02/25 11:07:39;;;;;;;2.50;1.80;;;7.30;99.90;;;;;;5048583;28;20459;-75
2023/02/25 11:10:05;;;;;;;4.03;1.80;;;7.40;99.90;;;;;;5052014;28;20563;-75
2023/02/25 11:12:45;;;;;;;3.43;1.73;;;7.30;99.90;;;;;;5032840;28;20532;-76
2023/02/25 11:15:29;;;;;;;2.83;2.10;;;7.30;99.90;;;;;;5034324;28;20487;-77
2023/02/25 11:18:05;;;;;;;5.10;2.67;;;7.40;99.90;;;;;;5063269;28;20457;-76
2023/02/25 11:20:34;;;;;;;3.90;1.80;;;7.40;99.90;;;;;;5035270;28;20443;-76
2023/02/25 11:23:00;;;;;;;7.70;2.00;;;7.40;99.90;;;;;;5034359;28;20433;-78
2023/02/25 11:25:39;;;;;;;4.07;1.90;;;7.40;99.90;;;;;;5033620;28;20938;-71
2023/02/25 11:28:16;;;;;;;3.70;1.97;;;7.40;99.90;;;;;;5048252;28;20818;-75
2023/02/25 11:30:43;;;;;;;5.60;2.93;;;7.40;99.90;;;;;;5046820;28;20526;-71
2023/02/25 11:33:22;;;;;;;4.20;1.80;;;7.40;99.90;;;;;;5050425;28;20971;-72
2023/02/25 11:35:58;;;;;;;5.00;1.73;;;7.40;99.90;;;;;;5033859;28;20413;-69
2023/02/25 11:38:35;;;;;;;5.23;1.90;;;7.40;99.90;;;;;;5030648;28;20776;-72
2023/02/25 11:41:02;;;;;;;6.90;1.83;;;7.40;99.90;;;;;;5050729;28;20430;-72
2023/02/25 11:43:41;;;;;;;5.50;1.70;;;7.40;99.90;;;;;;5053817;28;20456;-70
2023/02/25 11:46:29;;;;;;;2.17;1.70;;;7.40;99.90;;;;;;5053021;28;20822;-70
2023/02/25 11:49:01;;;;;;;4.37;2.23;;;7.40;99.90;;;;;;5056315;28;20397;-70
2023/02/25 11:51:54;;;;;;;4.87;1.90;;;7.40;99.90;;;;;;5054032;28;20442;-71
2023/02/25 11:54:48;;;;;;;3.33;1.37;;;7.50;99.90;;;;;;5054272;28;20451;-71
2023/02/25 11:57:32;;;;;;;8.13;1.93;;;7.40;99.90;;;;;;5065715;28;20987;-73
2023/02/25 12:00:20;;;;;;;5.70;1.85;;;7.50;99.90;;;;;;5055784;28;20469;-71
2023/02/25 12:03:09;;;;;;;3.77;1.30;;;7.50;99.90;;;;;;5052358;28;20693;-71
2023/02/25 12:05:52;;;;;;;4.43;1.60;;;7.50;99.90;;;;;;5035590;28;20562;-71
2023/02/25 12:08:49;;;;;;;3.43;1.50;;;7.50;99.90;;;;;;5052211;28;20455;-73
2023/02/25 12:11:53;;;;;;;3.00;1.53;;;7.50;99.90;;;;;;5035985;28;20471;-73
2023/02/25 12:14:25;;;;;;;2.90;1.70;;;7.50;99.90;;;;;;5015412;28;20432;-73
2023/02/25 12:16:54;;;;;;;6.53;1.43;;;7.50;99.90;;;;;;5051515;28;20793;-75
2023/02/25 12:19:50;;;;;;;5.43;1.45;;;7.50;99.90;;;;;;5037247;28;20454;-76
2023/02/25 12:22:35;;;;;;;3.27;1.63;;;7.60;99.90;;;;;;5018053;28;20280;-71
2023/02/25 12:25:26;;;;;;;3.55;1.40;;;7.60;99.90;;;;;;5053954;28;20473;-72
2023/02/25 12:27:58;;;;;;;6.60;1.70;;;7.60;99.90;;;;;;5037498;28;20284;-69
2023/02/25 12:30:56;;;;;;;2.73;1.13;;;7.60;99.90;;;;;;5054833;28;20503;-68
2023/02/25 12:33:57;;;;;;;4.30;1.53;;;7.60;99.90;;;;;;5054886;28;20447;-70
2023/02/25 12:36:44;;;;;;;3.80;1.50;;;7.60;99.90;;;;;;5055790;28;20438;-74
2023/02/25 12:39:37;;;;;;;1.93;1.23;;;7.60;99.90;;;;;;5055976;28;20524;-73
2023/02/25 12:42:31;;;;;;;5.03;1.57;;;7.60;99.90;;;;;;5070854;28;20752;-76
2023/02/25 12:45:24;;;;;;;3.77;1.33;;;7.60;99.90;;;;;;5037955;28;20496;-72
2023/02/25 12:47:56;;;;;;;2.97;1.37;;;7.60;99.90;;;;;;5037760;28;20449;-73
2023/02/25 12:50:49;;;;;;;4.73;1.37;;;7.60;99.90;;;;;;5054684;28;20396;-74
2023/02/25 12:53:27;;;;;;;3.70;1.60;;;7.60;99.90;;;;;;5051048;28;20461;-70
2023/02/25 12:56:18;;;;;;;2.70;1.30;;;7.60;99.90;;;;;;5053421;28;20448;-72
2023/02/25 12:59:09;;;;;;;5.33;1.40;;;7.60;99.90;;;;;;5054187;28;20453;-71
2023/02/25 13:01:50;;;;;;;4.63;1.67;;;7.60;99.90;;;;;;5053494;28;20440;-72
2023/02/25 13:04:31;;;;;;;14.20;2.57;;;7.60;99.90;;;;;;5069208;28;20456;-72
2023/02/25 13:07:17;;;;;;;5.00;1.80;;;7.50;99.50;;;;;;5050351;28;20765;-72
2023/02/25 13:09:46;;;;;;;8.33;1.50;;;7.40;98.20;;;;;;5034447;28;20433;-72
2023/02/25 13:12:39;;;;;;;4.20;1.50;;;7.40;96.80;;;;;;5026878;28;20417;-72
2023/02/25 13:15:16;;;;;;;4.10;1.90;;;7.40;95.60;;;;;;5054022;28;21030;-72
2023/02/25 13:18:02;;;;;;;3.07;1.40;;;7.40;94.60;;;;;;5054117;28;20436;-72
2023/02/25 13:21:03;;;;;;;6.50;1.73;;;7.40;94.50;;;;;;5053337;28;20451;-72
2023/02/25 13:23:48;;;;;;;4.30;1.77;;;7.30;92.60;;;;;;5052840;28;21080;-73
2023/02/25 13:26:39;;;;;;;3.20;1.40;;;7.30;92.90;;;;;;5052899;28;20495;-72